Grand Princess — ZCBU5 — position and weather

sailwx.info

Track history (hours):
 
Tides and Currents Weather Stations Pressure Air Temp Water Temp Dewpoint Dewpoint Depression Visibility Wind Speed Wind Dir Waves Ship Positions

Grand Princess

Operator: Princess Cruises

Last reported at 2017-May-27 02:01 UTC. Time now 2017-May-27 02:16 UTC.
Position N 48°21' W 125°10'.

Length 289.5 m; beam 36 m; draft 8.5 m.

Type: Ship. MMSI: 310327000.

Date/timePositionNaut miles runAvg speedWind from/ knotsBaromVisibWave heightAir tempDewpointWater temp
2017-May-27 02:01N 48°21' W 125°10'1020.0
2017-May-27 01:31N 48°30' W 125°02'1019.0
2017-May-27 01:01N 48°31' W 124°48'918.7
2017-May-27 00:31N 48°28' W 124°35'918.5
2017-May-27 00:00N 48°25' W 124°22'918.0
2017-May-26 23:30N 48°21' W 124°09'918.2
2017-May-26 23:00N 48°18' W 123°57'918.0
2017-May-26 22:30N 48°16' W 123°43'916.9
2017-May-26 21:59N 48°16' W 123°30'715.0
2017-May-26 21:30N 48°23' W 123°25'2 4.4
2017-May-26 20:59N 48°25' W 123°24'0 0.0
2017-May-26 20:28N 48°25' W 123°24'0 0.0
2017-May-26 19:58N 48°25' W 123°24'0 0.0
2017-May-26 19:25N 48°25' W 123°24'0 0.0
2017-May-26 18:58N 48°25' W 123°24'0 0.0
2017-May-26 18:30N 48°25' W 123°24'0 0.0
2017-May-26 18:00N 48°25' W 123°24'0 0.0
2017-May-26 17:30N 48°25' W 123°24'0 0.0
2017-May-26 17:00N 48°25' W 123°24'0 0.0
2017-May-26 16:30N 48°25' W 123°24'0 0.0
2017-May-26 15:59N 48°25' W 123°24'0 0.0
2017-May-26 15:29N 48°25' W 123°24'0 0.0
2017-May-26 14:59N 48°25' W 123°24'0 0.2
2017-May-26 14:00N 48°25' W 123°24'3 5.9
2017-May-26 13:31N 48°22' W 123°24'713.1
2017-May-26 13:00N 48°16' W 123°27'815.1
2017-May-26 12:30N 48°14' W 123°38'816.5
2017-May-26 12:00N 48°14' W 123°50'817.0
2017-May-26 11:30N 48°16' W 124°02'917.9
2017-May-26 11:00N 48°20' W 124°14'917.4
2017-May-26 10:30N 48°23' W 124°26'917.1
2017-May-26 10:00N 48°27' W 124°38'816.3
2017-May-26 09:30N 48°29' W 124°50'917.4
2017-May-26 09:00N 48°28' W 125°03'917.3
2017-May-26 08:30N 48°28' W 125°16'816.2
2017-May-26 08:00N 48°32' W 125°27'917.2
2017-May-26 07:30N 48°37' W 125°38'917.0
2017-May-26 07:00N 48°42' W 125°48'917.4
2017-May-26 06:30N 48°48' W 125°58'917.6
2017-May-26 06:01N 48°53' W 126°09'917.8
2017-May-26 05:30N 48°58' W 126°20'917.9
2017-May-26 05:00N 49°04' W 126°31'917.7
2017-May-26 04:30N 49°09' W 126°41'917.2
2017-May-26 04:01N 49°14' W 126°52'917.1
2017-May-26 03:30N 49°20' W 127°01'917.2
2017-May-26 03:01N 49°25' W 127°12'917.3
2017-May-26 02:30N 49°30' W 127°23'1017.9
2017-May-26 01:57N 49°37' W 127°34'817.8
2017-May-26 01:30N 49°42' W 127°44'1317.6
2017-May-26 00:46N 49°50' W 127°60'  
2017-May-21 04:00N 53°18' W 133°12'54921.2 140 / 331017.8 2.2 10.5 9.510.0
2017-May-20 02:03N 44°54' W 127°37'220.7
2017-May-20 01:59N 44°53' W 127°36'1021.2
2017-May-20 01:30N 44°44' W 127°31'33121.0
2017-May-19 09:42N 39°41' W 124°28'419.9
2017-May-19 09:30N 39°37' W 124°26'1019.7
2017-May-19 09:00N 39°28' W 124°21'1019.3
2017-May-19 08:30N 39°20' W 124°16'1020.9
2017-May-19 08:00N 39°10' W 124°11'1020.5
2017-May-19 07:30N 39°01' W 124°05'1020.3
2017-May-19 07:01N 38°52' W 123°58'1020.2
2017-May-19 06:30N 38°44' W 123°51'1020.2
2017-May-19 06:00N 38°36' W 123°43'1019.5
2017-May-19 05:31N 38°28' W 123°36'1019.4
2017-May-19 05:00N 38°20' W 123°29'816.7
2017-May-19 04:31N 38°13' W 123°23'611.3
2017-May-19 04:00N 38°08' W 123°19'510.6
2017-May-19 03:30N 38°04' W 123°15'510.7
2017-May-19 03:01N 38°00' W 123°10'510.6
2017-May-19 02:31N 37°57' W 123°05'510.6
2017-May-19 02:00N 37°54' W 122°59'510.8
2017-May-19 01:30N 37°51' W 122°53'510.9
2017-May-19 01:00N 37°49' W 122°47'510.8
2017-May-19 00:30N 37°46' W 122°41'611.4
2017-May-19 00:01N 37°47' W 122°34'713.5
2017-May-18 23:30N 37°49' W 122°26'1 2.6
2017-May-18 22:58N 37°48' W 122°24'0 0.0
2017-May-18 22:28N 37°48' W 122°24'0 0.0
2017-May-18 22:00N 37°48' W 122°24'0 0.0
2017-May-18 21:30N 37°48' W 122°24'0 0.0
2017-May-18 21:00N 37°48' W 122°24'0 0.0
2017-May-18 18:54N 37°48' W 122°24'0 0.0
2017-May-18 18:30N 37°48' W 122°24'0 0.0
2017-May-18 18:00N 37°48' W 122°24'0 0.0
2017-May-18 17:29N 37°48' W 122°24'0 0.0
2017-May-18 16:59N 37°48' W 122°24'0 0.0
2017-May-18 16:29N 37°48' W 122°24'0 0.0
2017-May-18 15:59N 37°48' W 122°24'0 0.0
2017-May-18 15:28N 37°48' W 122°24'0 0.0
2017-May-18 14:58N 37°48' W 122°24'0 0.0
2017-May-18 14:28N 37°48' W 122°24'0 0.2
2017-May-18 13:30N 37°48' W 122°24'2 3.5
2017-May-18 13:00N 37°49' W 122°26'611.4
2017-May-18 12:30N 37°47' W 122°33'714.9
2017-May-18 12:00N 37°46' W 122°42'5 9.5
2017-May-18 11:30N 37°47' W 122°48'510.0
2017-May-18 11:00N 37°50' W 122°54'5 9.7
2017-May-18 10:30N 37°52' W 122°59'5 9.9
2017-May-18 10:00N 37°55' W 123°04'5 9.9
2017-May-18 09:30N 37°57' W 123°10'5 9.8
2017-May-18 09:00N 38°00' W 123°14'5 9.8
2017-May-18 08:30N 38°04' W 123°18'510.0
2017-May-18 08:00N 38°08' W 123°22'715.1
2017-May-18 07:31N 38°14' W 123°28'918.1
2017-May-18 07:00N 38°22' W 123°34'918.0
2017-May-18 06:30N 38°29' W 123°41'917.5
2017-May-18 06:01N 38°36' W 123°47'917.3
2017-May-18 05:31N 38°43' W 123°53'40221.2
2017-May-17 10:33N 45°22' W 125°08'121.1
2017-May-17 10:30N 45°23' W 125°08'1020.9
2017-May-17 10:01N 45°33' W 125°09'1020.9
2017-May-17 09:31N 45°44' W 125°09'1020.8
2017-May-17 09:00N 45°54' W 125°10'1020.8
2017-May-17 08:31N 46°05' W 125°11'1020.7
2017-May-17 08:00N 46°15' W 125°12'1020.7
2017-May-17 07:30N 46°25' W 125°13'1021.1
2017-May-17 07:01N 46°36' W 125°13'1020.8
2017-May-17 06:31N 46°46' W 125°14'1120.9
2017-May-17 06:00N 46°57' W 125°15'1121.0
2017-May-17 05:30N 47°07' W 125°15'5320.3
2017-May-17 02:53N 48°00' W 125°19'718.9
2017-May-17 02:30N 48°07' W 125°15'  
Track history (hours):
 
Tides and Currents Weather Stations Pressure Air Temp Water Temp Dewpoint Dewpoint Depression Visibility Wind Speed Wind Dir Waves Ship Positions

Grand Princess

Operator: Princess Cruises

Last reported at 2017-May-27 02:01 UTC. Time now 2017-May-27 02:16 UTC.
Position N 48°21' W 125°10'.

Length 289.5 m; beam 36 m; draft 8.5 m.

Type: Ship. MMSI: 310327000.

Date/timePositionNaut miles runAvg speedWind from/ knotsBaromVisibWave heightAir tempDewpointWater temp
2017-May-27 02:01N 48°21' W 125°10'1020.0
2017-May-27 01:31N 48°30' W 125°02'1019.0
2017-May-27 01:01N 48°31' W 124°48'918.7
2017-May-27 00:31N 48°28' W 124°35'918.5
2017-May-27 00:00N 48°25' W 124°22'918.0
2017-May-26 23:30N 48°21' W 124°09'918.2
2017-May-26 23:00N 48°18' W 123°57'918.0
2017-May-26 22:30N 48°16' W 123°43'916.9
2017-May-26 21:59N 48°16' W 123°30'715.0
2017-May-26 21:30N 48°23' W 123°25'2 4.4
2017-May-26 20:59N 48°25' W 123°24'0 0.0
2017-May-26 20:28N 48°25' W 123°24'0 0.0
2017-May-26 19:58N 48°25' W 123°24'0 0.0
2017-May-26 19:25N 48°25' W 123°24'0 0.0
2017-May-26 18:58N 48°25' W 123°24'0 0.0
2017-May-26 18:30N 48°25' W 123°24'0 0.0
2017-May-26 18:00N 48°25' W 123°24'0 0.0
2017-May-26 17:30N 48°25' W 123°24'0 0.0
2017-May-26 17:00N 48°25' W 123°24'0 0.0
2017-May-26 16:30N 48°25' W 123°24'0 0.0
2017-May-26 15:59N 48°25' W 123°24'0 0.0
2017-May-26 15:29N 48°25' W 123°24'0 0.0
2017-May-26 14:59N 48°25' W 123°24'0 0.2
2017-May-26 14:00N 48°25' W 123°24'3 5.9
2017-May-26 13:31N 48°22' W 123°24'713.1
2017-May-26 13:00N 48°16' W 123°27'815.1
2017-May-26 12:30N 48°14' W 123°38'816.5
2017-May-26 12:00N 48°14' W 123°50'817.0
2017-May-26 11:30N 48°16' W 124°02'917.9
2017-May-26 11:00N 48°20' W 124°14'917.4
2017-May-26 10:30N 48°23' W 124°26'917.1
2017-May-26 10:00N 48°27' W 124°38'816.3
2017-May-26 09:30N 48°29' W 124°50'917.4
2017-May-26 09:00N 48°28' W 125°03'917.3
2017-May-26 08:30N 48°28' W 125°16'816.2
2017-May-26 08:00N 48°32' W 125°27'917.2
2017-May-26 07:30N 48°37' W 125°38'917.0
2017-May-26 07:00N 48°42' W 125°48'917.4
2017-May-26 06:30N 48°48' W 125°58'917.6
2017-May-26 06:01N 48°53' W 126°09'917.8
2017-May-26 05:30N 48°58' W 126°20'917.9
2017-May-26 05:00N 49°04' W 126°31'917.7
2017-May-26 04:30N 49°09' W 126°41'917.2
2017-May-26 04:01N 49°14' W 126°52'917.1
2017-May-26 03:30N 49°20' W 127°01'917.2
2017-May-26 03:01N 49°25' W 127°12'917.3
2017-May-26 02:30N 49°30' W 127°23'1017.9
2017-May-26 01:57N 49°37' W 127°34'817.8
2017-May-26 01:30N 49°42' W 127°44'1317.6
2017-May-26 00:46N 49°50' W 127°60'  
2017-May-21 04:00N 53°18' W 133°12'54921.2 140 / 331017.8 2.2 10.5 9.510.0
2017-May-20 02:03N 44°54' W 127°37'220.7
2017-May-20 01:59N 44°53' W 127°36'1021.2
2017-May-20 01:30N 44°44' W 127°31'33121.0
2017-May-19 09:42N 39°41' W 124°28'419.9
2017-May-19 09:30N 39°37' W 124°26'1019.7
2017-May-19 09:00N 39°28' W 124°21'1019.3
2017-May-19 08:30N 39°20' W 124°16'1020.9
2017-May-19 08:00N 39°10' W 124°11'1020.5
2017-May-19 07:30N 39°01' W 124°05'1020.3
2017-May-19 07:01N 38°52' W 123°58'1020.2
2017-May-19 06:30N 38°44' W 123°51'1020.2
2017-May-19 06:00N 38°36' W 123°43'1019.5
2017-May-19 05:31N 38°28' W 123°36'1019.4
2017-May-19 05:00N 38°20' W 123°29'816.7
2017-May-19 04:31N 38°13' W 123°23'611.3
2017-May-19 04:00N 38°08' W 123°19'510.6
2017-May-19 03:30N 38°04' W 123°15'510.7
2017-May-19 03:01N 38°00' W 123°10'510.6
2017-May-19 02:31N 37°57' W 123°05'510.6
2017-May-19 02:00N 37°54' W 122°59'510.8
2017-May-19 01:30N 37°51' W 122°53'510.9
2017-May-19 01:00N 37°49' W 122°47'510.8
2017-May-19 00:30N 37°46' W 122°41'611.4
2017-May-19 00:01N 37°47' W 122°34'713.5
2017-May-18 23:30N 37°49' W 122°26'1 2.6
2017-May-18 22:58N 37°48' W 122°24'0 0.0
2017-May-18 22:28N 37°48' W 122°24'0 0.0
2017-May-18 22:00N 37°48' W 122°24'0 0.0
2017-May-18 21:30N 37°48' W 122°24'0 0.0
2017-May-18 21:00N 37°48' W 122°24'0 0.0
2017-May-18 18:54N 37°48' W 122°24'0 0.0
2017-May-18 18:30N 37°48' W 122°24'0 0.0
2017-May-18 18:00N 37°48' W 122°24'0 0.0
2017-May-18 17:29N 37°48' W 122°24'0 0.0
2017-May-18 16:59N 37°48' W 122°24'0 0.0
2017-May-18 16:29N 37°48' W 122°24'0 0.0
2017-May-18 15:59N 37°48' W 122°24'0 0.0
2017-May-18 15:28N 37°48' W 122°24'0 0.0
2017-May-18 14:58N 37°48' W 122°24'0 0.0
2017-May-18 14:28N 37°48' W 122°24'0 0.2
2017-May-18 13:30N 37°48' W 122°24'2 3.5
2017-May-18 13:00N 37°49' W 122°26'611.4
2017-May-18 12:30N 37°47' W 122°33'714.9
2017-May-18 12:00N 37°46' W 122°42'5 9.5
2017-May-18 11:30N 37°47' W 122°48'510.0
2017-May-18 11:00N 37°50' W 122°54'5 9.7
2017-May-18 10:30N 37°52' W 122°59'5 9.9
2017-May-18 10:00N 37°55' W 123°04'5 9.9
2017-May-18 09:30N 37°57' W 123°10'5 9.8
2017-May-18 09:00N 38°00' W 123°14'5 9.8
2017-May-18 08:30N 38°04' W 123°18'510.0
2017-May-18 08:00N 38°08' W 123°22'715.1
2017-May-18 07:31N 38°14' W 123°28'918.1
2017-May-18 07:00N 38°22' W 123°34'918.0
2017-May-18 06:30N 38°29' W 123°41'917.5
2017-May-18 06:01N 38°36' W 123°47'917.3
2017-May-18 05:31N 38°43' W 123°53'40221.2
2017-May-17 10:33N 45°22' W 125°08'121.1
2017-May-17 10:30N 45°23' W 125°08'1020.9
2017-May-17 10:01N 45°33' W 125°09'1020.9
2017-May-17 09:31N 45°44' W 125°09'1020.8
2017-May-17 09:00N 45°54' W 125°10'1020.8
2017-May-17 08:31N 46°05' W 125°11'1020.7
2017-May-17 08:00N 46°15' W 125°12'1020.7
2017-May-17 07:30N 46°25' W 125°13'1021.1
2017-May-17 07:01N 46°36' W 125°13'1020.8
2017-May-17 06:31N 46°46' W 125°14'1120.9
2017-May-17 06:00N 46°57' W 125°15'1121.0
2017-May-17 05:30N 47°07' W 125°15'5320.3
2017-May-17 02:53N 48°00' W 125°19'718.9
2017-May-17 02:30N 48°07' W 125°15'  

Dump ship's entire track history